Time;durP1;ratioP1;P1;durP2;ratioP2;P2;SDS_P1;SDS_P2;PMS_P1;PMS_P2;Temp;Humidity;BMP_temperature;BMP_pressure;BME280_temperature;BME280_humidity;BME280_pressure;Samples;Min_cycle;Max_cycle;Signal;HPM_P1;HPM_P2
2023/06/15 00:00:10;;;;;;;11.18;5.35;;;;;;;;;;5044805;28;20040;-57
2023/06/15 00:02:36;;;;;;;10.32;5.35;;;;;;;;;;5027080;28;20025;-60
2023/06/15 00:05:01;;;;;;;11.13;5.22;;;;;;;;;;5045203;28;20052;-54
2023/06/15 00:07:26;;;;;;;10.23;5.35;;;;;;;;;;5044764;28;20376;-58
2023/06/15 00:09:52;;;;;;;16.20;6.18;;;;;;;;;;5044974;28;20107;-58
2023/06/15 00:12:17;;;;;;;8.18;5.57;;;;;;;;;;5044923;28;20426;-56
2023/06/15 00:14:42;;;;;;;16.10;6.07;;;;;;;;;;5008973;28;20032;-59
2023/06/15 00:17:08;;;;;;;10.98;5.70;;;;;;;;;;5045067;28;20534;-60
2023/06/15 00:19:33;;;;;;;10.82;5.78;;;;;;;;;;5045094;28;20028;-57
2023/06/15 00:21:58;;;;;;;7.45;5.00;;;;;;;;;;5044696;28;20040;-57
2023/06/15 00:24:24;;;;;;;8.35;5.22;;;;;;;;;;5044555;28;20083;-60
2023/06/15 00:26:49;;;;;;;13.45;5.55;;;;;;;;;;5044430;28;20060;-58
2023/06/15 00:29:14;;;;;;;10.95;5.60;;;;;;;;;;5044284;28;20143;-56
2023/06/15 00:31:40;;;;;;;13.43;4.90;;;;;;;;;;5044788;28;20021;-59
2023/06/15 00:34:05;;;;;;;9.13;5.45;;;;;;;;;;5044481;28;20036;-59
2023/06/15 00:36:30;;;;;;;8.73;4.95;;;;;;;;;;5043877;28;20120;-56
2023/06/15 00:38:56;;;;;;;7.05;4.57;;;;;;;;;;5044395;28;20162;-60
2023/06/15 00:41:21;;;;;;;10.20;4.65;;;;;;;;;;5044402;28;20021;-55
2023/06/15 00:43:46;;;;;;;10.13;5.85;;;;;;;;;;5044391;28;20024;-58
2023/06/15 00:46:12;;;;;;;11.43;5.40;;;;;;;;;;5044549;28;20021;-58
2023/06/15 00:48:38;;;;;;;17.33;5.53;;;;;;;;;;5044027;28;20471;-60
2023/06/15 00:51:03;;;;;;;7.07;5.05;;;;;;;;;;5044386;28;20056;-57
2023/06/15 00:53:28;;;;;;;12.48;5.53;;;;;;;;;;5044152;28;20108;-59
2023/06/15 00:55:54;;;;;;;8.95;4.97;;;;;;;;;;5044643;28;20380;-59
2023/06/15 00:58:19;;;;;;;8.30;5.40;;;;;;;;;;5044238;28;20150;-57
2023/06/15 01:00:48;;;;;;;10.95;6.03;;;;;;;;;;5044156;28;20462;-59
2023/06/15 01:03:20;;;;;;;19.20;6.38;;;;;;;;;;5043926;28;20025;-57
2023/06/15 01:05:45;;;;;;;12.77;7.18;;;;;;;;;;5044182;28;20075;-58
2023/06/15 01:08:11;;;;;;;15.10;7.82;;;;;;;;;;5043798;28;20021;-59
2023/06/15 01:10:37;;;;;;;20.73;8.20;;;;;;;;;;5043753;28;20025;-59
2023/06/15 01:13:03;;;;;;;16.52;7.75;;;;;;;;;;5043857;28;20486;-59
2023/06/15 01:15:29;;;;;;;15.68;6.90;;;;;;;;;;5043369;28;20083;-59
2023/06/15 01:17:57;;;;;;;14.55;7.15;;;;;;;;;;5043726;28;20029;-58
2023/06/15 01:20:32;;;;;;;16.10;6.78;;;;;;;;;;5043750;28;20071;-56
2023/06/15 01:23:18;;;;;;;13.57;6.50;;;;;;;;;;5043570;28;20021;-59
2023/06/15 01:25:44;;;;;;;11.10;5.97;;;;;;;;;;5043410;28;20508;-60
2023/06/15 01:28:10;;;;;;;11.85;6.95;;;;;;;;;;5042768;28;20061;-57
2023/06/15 01:30:38;;;;;;;11.57;6.22;;;;;;;;;;5043408;28;20024;-56
2023/06/15 01:33:04;;;;;;;9.90;5.80;;;;;;;;;;5043487;28;20040;-60
2023/06/15 01:35:29;;;;;;;12.73;6.30;;;;;;;;;;5043235;28;20036;-58
2023/06/15 01:37:54;;;;;;;8.63;5.90;;;;;;;;;;5043272;28;20021;-54
2023/06/15 01:40:20;;;;;;;9.18;6.00;;;;;;;;;;5043192;28;20067;-60
2023/06/15 01:42:46;;;;;;;8.57;5.55;;;;;;;;;;5042841;28;20083;-55
2023/06/15 01:45:12;;;;;;;8.68;6.00;;;;;;;;;;5043013;28;20024;-57
2023/06/15 01:47:39;;;;;;;8.80;5.03;;;;;;;;;;5042763;28;20028;-58
2023/06/15 01:50:05;;;;;;;13.63;5.80;;;;;;;;;;5042315;28;20116;-60
2023/06/15 01:52:31;;;;;;;11.52;5.95;;;;;;;;;;5042921;28;20025;-60
2023/06/15 01:54:56;;;;;;;12.40;5.68;;;;;;;;;;5042881;28;20032;-60
2023/06/15 01:57:21;;;;;;;8.30;5.30;;;;;;;;;;5042781;28;20096;-59
2023/06/15 01:59:47;;;;;;;8.70;5.43;;;;;;;;;;5042659;28;20102;-59
2023/06/15 02:02:12;;;;;;;9.18;5.97;;;;;;;;;;5042387;28;20021;-56
2023/06/15 02:04:37;;;;;;;9.25;5.97;;;;;;;;;;5042482;28;20479;-59
2023/06/15 02:07:03;;;;;;;8.05;5.60;;;;;;;;;;5042764;28;20472;-56
2023/06/15 02:09:28;;;;;;;12.13;6.15;;;;;;;;;;5042920;28;20024;-60
2023/06/15 02:11:53;;;;;;;14.38;6.72;;;;;;;;;;5006934;28;20044;-59
2023/06/15 02:14:19;;;;;;;11.00;6.47;;;;;;;;;;5042460;28;20480;-56
2023/06/15 02:16:44;;;;;;;8.43;6.05;;;;;;;;;;5042634;28;20392;-59
2023/06/15 02:19:09;;;;;;;11.13;6.47;;;;;;;;;;5042369;28;20118;-58
2023/06/15 02:21:35;;;;;;;9.15;6.28;;;;;;;;;;5042368;28;20021;-58
2023/06/15 02:24:00;;;;;;;7.72;5.68;;;;;;;;;;5042967;28;20040;-55
2023/06/15 02:26:25;;;;;;;8.18;5.53;;;;;;;;;;4990413;28;20124;-57
2023/06/15 02:28:51;;;;;;;10.45;5.45;;;;;;;;;;5042140;28;20095;-59
2023/06/15 02:31:16;;;;;;;14.57;5.93;;;;;;;;;;5042533;28;20096;-57
2023/06/15 02:33:42;;;;;;;12.85;6.30;;;;;;;;;;5042353;28;20024;-54
2023/06/15 02:36:07;;;;;;;10.20;5.65;;;;;;;;;;5041750;28;20492;-60
2023/06/15 02:38:32;;;;;;;11.10;5.65;;;;;;;;;;5042565;28;20021;-60
2023/06/15 02:40:57;;;;;;;12.88;6.25;;;;;;;;;;5042129;28;20025;-56
2023/06/15 02:43:23;;;;;;;12.30;6.30;;;;;;;;;;5042339;28;20380;-59
2023/06/15 02:45:48;;;;;;;11.05;5.93;;;;;;;;;;5042394;28;20060;-56
2023/06/15 02:48:14;;;;;;;8.93;5.50;;;;;;;;;;5041938;28;20035;-56
2023/06/15 02:50:39;;;;;;;11.48;5.57;;;;;;;;;;5042217;28;20025;-53
2023/06/15 02:53:04;;;;;;;12.88;5.65;;;;;;;;;;5042221;28;20048;-57
2023/06/15 02:55:30;;;;;;;8.38;5.68;;;;;;;;;;5041886;28;20740;-58
2023/06/15 02:57:55;;;;;;;8.20;5.43;;;;;;;;;;5041958;28;20025;-57
2023/06/15 03:00:23;;;;;;;10.63;5.97;;;;;;;;;;5043356;28;20021;-57
2023/06/15 03:02:48;;;;;;;7.30;5.15;;;;;;;;;;5045949;28;20524;-58
2023/06/15 03:05:13;;;;;;;8.27;5.43;;;;;;;;;;5026875;28;20040;-59
2023/06/15 03:07:40;;;;;;;7.93;4.97;;;;;;;;;;5045793;28;20024;-57
2023/06/15 03:10:05;;;;;;;11.65;5.85;;;;;;;;;;5028212;28;20049;-53
2023/06/15 03:12:31;;;;;;;7.47;4.60;;;;;;;;;;5045819;28;20064;-60
2023/06/15 03:14:56;;;;;;;10.35;5.40;;;;;;;;;;5046316;28;20029;-56
2023/06/15 03:17:22;;;;;;;8.48;5.25;;;;;;;;;;5045527;28;20104;-59
2023/06/15 03:19:47;;;;;;;7.72;5.68;;;;;;;;;;5045560;28;20025;-56
2023/06/15 03:22:13;;;;;;;7.85;4.78;;;;;;;;;;5045569;28;20362;-57
2023/06/15 03:24:40;;;;;;;8.57;5.43;;;;;;;;;;5045781;28;20021;-60
2023/06/15 03:27:06;;;;;;;7.97;5.05;;;;;;;;;;5045295;28;20021;-58
2023/06/15 03:29:36;;;;;;;9.20;5.40;;;;;;;;;;5045322;28;20056;-54
2023/06/15 03:32:02;;;;;;;7.05;4.50;;;;;;;;;;5045300;28;20024;-57
2023/06/15 03:34:28;;;;;;;7.88;4.90;;;;;;;;;;5045455;28;20021;-58
2023/06/15 03:36:53;;;;;;;8.00;5.05;;;;;;;;;;5045049;28;20031;-59
2023/06/15 03:39:18;;;;;;;7.00;4.82;;;;;;;;;;5046028;28;20021;-56
2023/06/15 03:41:44;;;;;;;8.50;4.75;;;;;;;;;;5045074;28;20024;-58
2023/06/15 03:44:09;;;;;;;7.45;4.75;;;;;;;;;;5044996;28;20021;-59
2023/06/15 03:46:35;;;;;;;7.53;4.55;;;;;;;;;;5027488;28;20029;-60
2023/06/15 03:49:00;;;;;;;7.40;5.05;;;;;;;;;;5027271;28;20535;-57
2023/06/15 03:51:27;;;;;;;8.77;4.80;;;;;;;;;;5044820;28;20071;-57
2023/06/15 03:53:52;;;;;;;9.25;4.78;;;;;;;;;;5045056;28;20452;-60
2023/06/15 03:56:17;;;;;;;9.57;4.97;;;;;;;;;;4992772;28;20041;-60
2023/06/15 03:58:42;;;;;;;7.93;4.55;;;;;;;;;;5044902;28;20527;-57
2023/06/15 04:01:08;;;;;;;8.32;4.88;;;;;;;;;;5044738;28;20025;-55
2023/06/15 04:03:36;;;;;;;9.43;4.95;;;;;;;;;;5044954;28;20040;-56
2023/06/15 04:06:04;;;;;;;8.32;4.07;;;;;;;;;;5009007;28;20029;-58
2023/06/15 04:08:29;;;;;;;8.73;4.90;;;;;;;;;;5044566;28;20021;-59
2023/06/15 04:10:56;;;;;;;6.88;4.30;;;;;;;;;;5044812;28;20396;-59
2023/06/15 04:13:22;;;;;;;7.72;4.82;;;;;;;;;;5043805;28;20017;-60
2023/06/15 04:15:47;;;;;;;9.40;4.20;;;;;;;;;;5026725;28;20037;-55
2023/06/15 04:18:12;;;;;;;7.47;4.07;;;;;;;;;;5044403;28;20166;-57
2023/06/15 04:20:38;;;;;;;9.30;4.97;;;;;;;;;;5044529;28;20016;-58
2023/06/15 04:23:03;;;;;;;8.02;4.72;;;;;;;;;;5044043;28;20107;-60
2023/06/15 04:25:28;;;;;;;9.13;4.68;;;;;;;;;;5044344;28;20079;-55
2023/06/15 04:27:55;;;;;;;8.82;4.20;;;;;;;;;;5044339;28;20076;-59
2023/06/15 04:30:24;;;;;;;10.10;4.45;;;;;;;;;;5044198;28;20028;-59
2023/06/15 04:32:59;;;;;;;7.75;4.35;;;;;;;;;;5044262;28;20025;-57
2023/06/15 04:35:28;;;;;;;13.70;5.60;;;;;;;;;;5044596;28;20033;-57
2023/06/15 04:37:56;;;;;;;11.00;4.90;;;;;;;;;;5043881;28;20029;-58
2023/06/15 04:40:22;;;;;;;14.27;4.68;;;;;;;;;;5043923;28;20075;-58
2023/06/15 04:42:47;;;;;;;16.98;5.28;;;;;;;;;;5043865;28;20017;-56
2023/06/15 04:45:12;;;;;;;10.03;4.70;;;;;;;;;;5007876;28;20554;-56
2023/06/15 04:47:38;;;;;;;9.20;4.83;;;;;;;;;;5043761;28;20254;-58
2023/06/15 04:50:04;;;;;;;9.93;4.40;;;;;;;;;;5043409;28;20815;-57
2023/06/15 04:52:29;;;;;;;7.30;4.40;;;;;;;;;;5043689;28;20052;-57
2023/06/15 04:54:55;;;;;;;7.00;4.75;;;;;;;;;;5043833;28;20464;-55
2023/06/15 04:57:20;;;;;;;9.80;4.90;;;;;;;;;;5043650;28;20487;-60
2023/06/15 04:59:45;;;;;;;11.70;4.80;;;;;;;;;;5043818;28;20476;-56
2023/06/15 05:02:10;;;;;;;6.78;4.32;;;;;;;;;;5044029;28;20246;-55
2023/06/15 05:04:36;;;;;;;7.00;4.40;;;;;;;;;;5043472;28;20531;-57
2023/06/15 05:07:01;;;;;;;8.27;4.60;;;;;;;;;;5043596;28;20328;-60
2023/06/15 05:09:27;;;;;;;8.57;4.10;;;;;;;;;;5025919;28;20406;-55
2023/06/15 05:11:52;;;;;;;5.43;3.80;;;;;;;;;;5043869;28;20021;-59
2023/06/15 05:14:17;;;;;;;6.03;4.20;;;;;;;;;;5043481;28;20718;-56
2023/06/15 05:16:43;;;;;;;6.82;4.10;;;;;;;;;;5042944;28;20171;-60
2023/06/15 05:19:08;;;;;;;7.43;4.80;;;;;;;;;;5043592;28;20050;-57
2023/06/15 05:21:33;;;;;;;6.00;4.00;;;;;;;;;;4991288;28;20041;-57
2023/06/15 05:23:58;;;;;;;6.93;4.30;;;;;;;;;;5043214;28;20527;-55
2023/06/15 05:26:25;;;;;;;9.17;4.13;;;;;;;;;;5043970;28;20762;-58
2023/06/15 05:28:51;;;;;;;8.25;4.68;;;;;;;;;;5042361;28;20380;-57
2023/06/15 05:31:16;;;;;;;5.97;4.30;;;;;;;;;;5042757;28;20524;-54
2023/06/15 05:33:42;;;;;;;9.30;4.50;;;;;;;;;;5042992;28;20021;-53
2023/06/15 05:36:07;;;;;;;5.68;3.80;;;;;;;;;;5042629;28;20033;-59
2023/06/15 05:38:32;;;;;;;8.10;4.13;;;;;;;;;;5041799;28;20022;-55
2023/06/15 05:40:57;;;;;;;10.00;4.10;;;;;;;;;;5042108;28;20288;-59
2023/06/15 05:43:23;;;;;;;7.55;4.55;;;;;;;;;;5037446;28;20262;-58
2023/06/15 05:45:48;;;;;;;25.67;5.68;;;;;;;;;;5042436;28;20035;-57
2023/06/15 05:48:14;;;;;;;8.55;4.18;;;;;;;;;;5032493;28;20017;-56
2023/06/15 05:50:39;;;;;;;6.18;4.18;;;;;;;;;;5012226;28;20055;-59
2023/06/15 05:53:04;;;;;;;7.20;4.77;;;;;;;;;;5024827;28;20033;-59
2023/06/15 05:55:30;;;;;;;10.30;4.50;;;;;;;;;;5035053;28;20381;-61
2023/06/15 05:57:55;;;;;;;7.00;3.70;;;;;;;;;;5023048;28;20029;-60
2023/06/15 06:00:22;;;;;;;10.23;4.60;;;;;;;;;;5015062;28;20020;-53
2023/06/15 06:02:47;;;;;;;13.65;5.07;;;;;;;;;;5042796;28;20254;-58
2023/06/15 06:05:13;;;;;;;5.35;3.47;;;;;;;;;;5041751;28;20067;-58
2023/06/15 06:07:38;;;;;;;8.68;4.15;;;;;;;;;;5042379;28;20071;-59
2023/06/15 06:10:03;;;;;;;9.90;3.95;;;;;;;;;;5041979;28;20021;-57
2023/06/15 06:12:29;;;;;;;7.10;3.65;;;;;;;;;;5041232;28;20090;-61
2023/06/15 06:14:54;;;;;;;8.43;3.55;;;;;;;;;;5042049;28;20025;-54
2023/06/15 06:17:19;;;;;;;9.23;3.95;;;;;;;;;;5041991;28;20040;-59
2023/06/15 06:19:45;;;;;;;8.57;4.43;;;;;;;;;;5042529;28;20021;-57
2023/06/15 06:22:10;;;;;;;6.47;3.58;;;;;;;;;;5042034;28;20333;-57
2023/06/15 06:24:36;;;;;;;6.43;3.80;;;;;;;;;;5041522;28;20484;-62
2023/06/15 06:27:01;;;;;;;10.97;3.87;;;;;;;;;;5042148;28;20393;-60
2023/06/15 06:29:26;;;;;;;7.28;3.88;;;;;;;;;;5006189;28;20804;-59
2023/06/15 06:31:52;;;;;;;10.18;4.00;;;;;;;;;;5041689;28;20574;-59
2023/06/15 06:34:17;;;;;;;8.53;3.67;;;;;;;;;;5041294;28;20032;-61
2023/06/15 06:36:42;;;;;;;5.70;3.90;;;;;;;;;;5033739;28;20025;-59
2023/06/15 06:39:07;;;;;;;10.85;4.00;;;;;;;;;;5005908;28;20037;-60
2023/06/15 06:41:33;;;;;;;8.70;4.40;;;;;;;;;;5036418;28;20017;-61
2023/06/15 06:43:58;;;;;;;11.33;4.47;;;;;;;;;;5032892;28;20028;-63
2023/06/15 06:46:23;;;;;;;11.70;4.13;;;;;;;;;;5029483;28;20793;-59
2023/06/15 06:48:49;;;;;;;11.33;4.47;;;;;;;;;;5032473;28;20286;-59
2023/06/15 06:51:15;;;;;;;6.47;4.10;;;;;;;;;;5040839;28;20739;-60
2023/06/15 06:53:40;;;;;;;11.30;4.43;;;;;;;;;;5042132;28;20043;-60
2023/06/15 06:56:06;;;;;;;5.97;3.60;;;;;;;;;;5041303;28;20151;-57
2023/06/15 06:58:31;;;;;;;14.30;4.30;;;;;;;;;;5041626;28;20250;-60
2023/06/15 07:00:56;;;;;;;6.68;3.63;;;;;;;;;;5036722;28;20258;-56
2023/06/15 07:03:21;;;;;;;7.00;3.33;;;;;;;;;;5035863;28;20021;-60
2023/06/15 07:05:47;;;;;;;7.00;3.50;;;;;;;;;;5041221;28;20254;-60
2023/06/15 07:08:12;;;;;;;12.43;4.10;;;;;;;;;;5040999;28;20254;-58
2023/06/15 07:10:38;;;;;;;7.43;4.35;;;;;;;;;;5041236;28;20028;-60
2023/06/15 07:13:03;;;;;;;8.77;3.70;;;;;;;;;;5041073;28;20017;-62
2023/06/15 07:15:31;;;;;;;10.83;4.10;;;;;;;;;;5041262;28;20282;-57
2023/06/15 07:17:56;;;;;;;9.33;3.47;;;;;;;;;;5037572;28;20021;-57
2023/06/15 07:20:22;;;;;;;9.88;3.90;;;;;;;;;;5035140;28;20246;-59
2023/06/15 07:22:47;;;;;;;5.63;3.77;;;;;;;;;;5038437;28;20499;-59
2023/06/15 07:25:12;;;;;;;7.22;4.32;;;;;;;;;;5031169;28;20100;-60
2023/06/15 07:27:38;;;;;;;7.10;3.70;;;;;;;;;;5040980;28;20168;-60
2023/06/15 07:30:03;;;;;;;4.63;3.50;;;;;;;;;;5041362;28;20729;-61
2023/06/15 07:32:28;;;;;;;5.28;3.22;;;;;;;;;;5039850;28;20242;-57
2023/06/15 07:34:54;;;;;;;7.60;3.47;;;;;;;;;;5041095;28;20115;-59
2023/06/15 07:37:19;;;;;;;7.97;3.33;;;;;;;;;;5041206;28;20753;-62
2023/06/15 07:39:44;;;;;;;7.13;3.40;;;;;;;;;;5039660;28;20247;-62
2023/06/15 07:42:09;;;;;;;37.33;4.43;;;;;;;;;;5040884;28;20025;-57
2023/06/15 07:44:35;;;;;;;5.43;3.00;;;;;;;;;;5040966;28;20531;-60
2023/06/15 07:47:00;;;;;;;7.25;3.47;;;;;;;;;;5041470;28;20025;-57
2023/06/15 07:49:26;;;;;;;9.75;2.90;;;;;;;;;;5042446;28;20035;-56
2023/06/15 07:51:51;;;;;;;6.38;3.45;;;;;;;;;;5044820;28;20039;-58
2023/06/15 07:54:16;;;;;;;7.70;3.10;;;;;;;;;;5044841;28;20029;-57
2023/06/15 07:56:44;;;;;;;7.25;2.85;;;;;;;;;;5044258;28;20269;-60
2023/06/15 07:59:09;;;;;;;6.50;3.20;;;;;;;;;;5043915;28;20048;-57
2023/06/15 08:01:34;;;;;;;6.10;2.73;;;;;;;;;;5044178;28;20063;-55
2023/06/15 08:04:00;;;;;;;5.30;2.90;;;;;;;;;;5044723;28;20566;-61
2023/06/15 08:06:25;;;;;;;6.00;2.93;;;;;;;;;;5043943;28;20741;-61
2023/06/15 08:08:50;;;;;;;4.70;2.83;;;;;;;;;;5044191;28;20748;-61
2023/06/15 08:11:16;;;;;;;5.97;2.80;;;;;;;;;;5044425;28;20558;-62
2023/06/15 08:13:42;;;;;;;5.05;2.83;;;;;;;;;;5044468;28;20588;-61
2023/06/15 08:16:07;;;;;;;7.40;3.00;;;;;;;;;;5041601;28;20029;-57
2023/06/15 08:18:33;;;;;;;4.47;2.73;;;;;;;;;;5024133;28;20461;-58
2023/06/15 08:20:58;;;;;;;6.60;3.05;;;;;;;;;;5025663;28;20032;-61
2023/06/15 08:23:23;;;;;;;6.90;2.70;;;;;;;;;;5043741;28;20090;-57
2023/06/15 08:32:55;;;;;;;39.55;29.75;;;;;;;;;;5097845;27;20373;-61
2023/06/15 08:35:20;;;;;;;5.33;3.20;;;;;;;;;;5098602;28;20034;-62
2023/06/15 08:37:45;;;;;;;5.00;2.87;;;;;;;;;;5097753;28;20671;-62
2023/06/15 08:40:11;;;;;;;4.87;3.23;;;;;;;;;;5097753;28;20047;-52
2023/06/15 08:44:34;;;;;;;8.02;3.00;;;;;;;;;;5119008;27;20370;-60
2023/06/15 08:47:00;;;;;;;50.30;5.78;;;;;;;;;;5118545;28;20084;-59
2023/06/15 08:52:33;;;;;;;9.60;4.05;;;;;;;;;;5059982;28;20372;-60
2023/06/15 08:54:59;;;;;;;8.68;3.53;;;;;;;;;;5061917;28;20102;-57
2023/06/15 08:57:25;;;;;;;14.75;4.68;;;;;;;;;;5065251;28;20464;-54
2023/06/15 08:59:51;;;;;;;12.20;4.55;;;;;;;;;;5062297;28;20046;-61
2023/06/15 09:02:23;;;;;;;9.68;3.72;;;;;;;;;;5063383;28;20028;-58
2023/06/15 09:04:50;;;;;;;24.67;15.98;;;;;;;;;;5060096;28;20522;-58
2023/06/15 09:07:15;;;;;;;514.80;467.58;;;;;;;;;;5059308;28;20035;-56
2023/06/15 09:10:01;;;;;;;5.68;2.92;;;;;;;;;;5061611;28;20412;-61
2023/06/15 09:12:26;;;;;;;12.10;3.20;;;;;;;;;;5063634;28;20063;-60
2023/06/15 09:14:51;;;;;;;8.47;3.13;;;;;;;;;;5070171;28;20079;-60
2023/06/15 09:17:19;;;;;;;5.90;2.97;;;;;;;;;;5059268;28;20078;-58
2023/06/15 09:19:45;;;;;;;6.57;3.05;;;;;;;;;;5062200;28;20078;-61
2023/06/15 09:22:10;;;;;;;7.60;3.33;;;;;;;;;;5061747;28;20024;-61
2023/06/15 09:24:38;;;;;;;5.70;2.70;;;;;;;;;;5066859;28;20758;-61
2023/06/15 09:27:13;;;;;;;12.45;3.80;;;;;;;;;;5082004;28;20055;-59
2023/06/15 09:29:38;;;;;;;8.52;3.30;;;;;;;;;;5082338;28;20028;-59
2023/06/15 09:32:04;;;;;;;5.53;2.63;;;;;;;;;;5072677;28;20036;-58
2023/06/15 09:34:29;;;;;;;10.27;3.38;;;;;;;;;;5061882;28;20017;-60
2023/06/15 09:36:55;;;;;;;11.45;3.90;;;;;;;;;;5062556;28;20396;-59
2023/06/15 09:39:24;;;;;;;8.87;3.57;;;;;;;;;;5060987;28;20016;-58
2023/06/15 09:41:53;;;;;;;7.78;3.75;;;;;;;;;;5059726;28;20380;-59
2023/06/15 09:44:19;;;;;;;8.82;3.17;;;;;;;;;;5058566;28;20020;-58
2023/06/15 09:46:47;;;;;;;4.53;2.72;;;;;;;;;;5060451;28;20055;-60
2023/06/15 09:49:20;;;;;;;7.40;3.17;;;;;;;;;;5061131;28;20028;-58
2023/06/15 09:51:46;;;;;;;22.23;20.17;;;;;;;;;;5060321;28;20090;-55
2023/06/15 09:54:11;;;;;;;7.63;3.75;;;;;;;;;;5060831;28;20017;-61
2023/06/15 09:56:36;;;;;;;10.45;3.80;;;;;;;;;;5060587;28;20036;-55
2023/06/15 09:59:02;;;;;;;12.68;3.72;;;;;;;;;;5059777;28;20407;-61
2023/06/15 10:01:30;;;;;;;10.77;3.25;;;;;;;;;;5061026;28;20025;-61
2023/06/15 10:03:56;;;;;;;8.63;3.38;;;;;;;;;;5054833;28;20013;-58
2023/06/15 10:06:22;;;;;;;10.63;4.03;;;;;;;;;;5055312;28;20081;-60
2023/06/15 10:08:51;;;;;;;9.73;3.92;;;;;;;;;;5047129;28;20486;-60
2023/06/15 10:11:17;;;;;;;122.05;17.10;;;;;;;;;;5051127;28;20033;-60
2023/06/15 10:13:45;;;;;;;84.20;14.55;;;;;;;;;;5046853;28;20021;-58
2023/06/15 10:16:13;;;;;;;45.22;8.23;;;;;;;;;;5058032;28;20174;-61
2023/06/15 10:18:39;;;;;;;61.57;10.27;;;;;;;;;;5048413;28;20059;-59
2023/06/15 10:21:07;;;;;;;38.47;8.07;;;;;;;;;;5049368;28;20333;-62
2023/06/15 10:23:32;;;;;;;14.68;5.20;;;;;;;;;;5051142;28;20053;-60
2023/06/15 10:25:58;;;;;;;15.10;3.88;;;;;;;;;;5048308;28;20044;-59
2023/06/15 10:28:24;;;;;;;78.85;12.82;;;;;;;;;;5063996;28;20031;-59
2023/06/15 10:30:57;;;;;;;34.50;6.15;;;;;;;;;;5064635;28;20032;-58
2023/06/15 10:33:26;;;;;;;23.85;5.30;;;;;;;;;;5066660;28;20099;-59
2023/06/15 10:36:00;;;;;;;16.17;3.80;;;;;;;;;;5052510;28;20020;-59
2023/06/15 10:38:29;;;;;;;10.88;4.47;;;;;;;;;;5050452;28;20032;-60
2023/06/15 10:40:55;;;;;;;10.80;4.05;;;;;;;;;;5058023;28;20375;-58
2023/06/15 10:43:21;;;;;;;6.55;2.67;;;;;;;;;;5047085;28;20047;-61
2023/06/15 10:45:46;;;;;;;9.00;3.20;;;;;;;;;;5048490;28;20082;-62
2023/06/15 10:48:26;;;;;;;8.65;3.13;;;;;;;;;;5058885;28;20460;-61
2023/06/15 10:50:51;;;;;;;;;;;;;;;;;;5046825;28;20562;-62
2023/06/15 10:53:33;;;;;;;10.40;3.63;;;;;;;;;;5046552;28;19905;-55
2023/06/15 10:55:59;;;;;;;8.15;3.45;;;;;;;;;;5045113;28;20360;-60
2023/06/15 10:58:27;;;;;;;6.67;3.03;;;;;;;;;;5046273;28;20017;-61
2023/06/15 11:01:07;;;;;;;12.15;3.70;;;;;;;;;;5045581;28;20277;-61
2023/06/15 11:03:32;;;;;;;10.15;2.78;;;;;;;;;;5046169;28;20029;-60
2023/06/15 11:06:06;;;;;;;8.43;3.30;;;;;;;;;;5045938;28;20537;-61
2023/06/15 11:08:40;;;;;;;4.00;2.65;;;;;;;;;;5046402;28;20020;-60
2023/06/15 11:11:08;;;;;;;13.52;3.38;;;;;;;;;;5045650;28;20056;-61
2023/06/15 11:13:34;;;;;;;16.02;4.95;;;;;;;;;;5040587;28;20090;-59
2023/06/15 11:16:07;;;;;;;6.77;3.10;;;;;;;;;;5037003;28;20447;-61
2023/06/15 11:18:32;;;;;;;8.43;3.40;;;;;;;;;;5033658;28;20262;-62
2023/06/15 11:21:02;;;;;;;3.58;2.67;;;;;;;;;;5042027;28;20553;-60
2023/06/15 11:23:35;;;;;;;7.47;2.45;;;;;;;;;;5036736;28;21453;-60
2023/06/15 11:26:01;;;;;;;12.68;5.20;;;;;;;;;;5038958;28;20021;-61
2023/06/15 11:28:31;;;;;;;19.65;3.63;;;;;;;;;;5038858;28;20051;-59
2023/06/15 11:30:59;;;;;;;10.65;2.92;;;;;;;;;;5035835;28;20075;-60
2023/06/15 11:33:25;;;;;;;7.40;3.00;;;;;;;;;;5032604;28;20449;-60
2023/06/15 11:35:50;;;;;;;10.50;2.67;;;;;;;;;;5034694;28;20021;-62
2023/06/15 11:38:15;;;;;;;5.07;2.90;;;;;;;;;;5032799;28;20455;-62
2023/06/15 11:40:41;;;;;;;9.35;3.00;;;;;;;;;;5044556;28;20311;-59
2023/06/15 11:43:11;;;;;;;10.65;4.68;;;;;;;;;;5031602;28;20021;-57
2023/06/15 11:45:37;;;;;;;4.93;2.78;;;;;;;;;;5042358;28;20112;-58
2023/06/15 11:48:11;;;;;;;15.10;3.40;;;;;;;;;;5039314;28;20104;-59
2023/06/15 11:50:40;;;;;;;10.20;3.53;;;;;;;;;;5033235;28;20309;-54
2023/06/15 11:53:05;;;;;;;6.15;3.30;;;;;;;;;;5028348;28;20120;-60
2023/06/15 11:55:33;;;;;;;6.63;3.83;;;;;;;;;;5049585;28;20043;-59
2023/06/15 11:57:58;;;;;;;12.07;3.65;;;;;;;;;;5039023;28;20073;-59
2023/06/15 12:00:24;;;;;;;7.50;2.80;;;;;;;;;;5028753;28;20021;-58
2023/06/15 12:02:50;;;;;;;14.63;4.30;;;;;;;;;;5031190;28;20124;-59
2023/06/15 12:05:17;;;;;;;7.80;2.60;;;;;;;;;;5033766;28;20024;-59
2023/06/15 12:07:42;;;;;;;94.18;8.32;;;;;;;;;;5035034;28;20075;-58
2023/06/15 12:10:11;;;;;;;5.80;2.95;;;;;;;;;;5037044;28;20032;-59
2023/06/15 12:12:36;;;;;;;10.57;3.83;;;;;;;;;;5034352;28;20108;-59
2023/06/15 12:15:02;;;;;;;4.47;2.63;;;;;;;;;;5039998;28;20131;-59
2023/06/15 12:17:34;;;;;;;6.13;3.05;;;;;;;;;;5041375;28;20028;-58
2023/06/15 12:20:08;;;;;;;8.23;3.03;;;;;;;;;;5039662;28;20096;-57
2023/06/15 12:22:37;;;;;;;4.53;2.80;;;;;;;;;;5041738;28;20115;-59
2023/06/15 12:25:03;;;;;;;3.35;2.67;;;;;;;;;;5039238;28;20022;-61
2023/06/15 12:27:29;;;;;;;5.72;2.80;;;;;;;;;;5032867;28;20041;-59
2023/06/15 12:29:55;;;;;;;5.45;3.08;;;;;;;;;;5034596;28;20020;-58
2023/06/15 12:32:24;;;;;;;4.32;2.85;;;;;;;;;;5028539;28;20818;-61
2023/06/15 12:34:52;;;;;;;6.15;2.85;;;;;;;;;;5028683;28;20032;-61
2023/06/15 12:37:17;;;;;;;22.42;5.68;;;;;;;;;;5036944;28;20060;-60
2023/06/15 12:39:44;;;;;;;4.72;2.90;;;;;;;;;;5040458;28;20041;-56
2023/06/15 12:42:09;;;;;;;8.00;3.33;;;;;;;;;;5042058;28;20054;-59
2023/06/15 12:44:35;;;;;;;8.57;2.70;;;;;;;;;;5039815;28;20531;-58
2023/06/15 12:47:00;;;;;;;4.77;3.00;;;;;;;;;;5025653;28;20029;-61
2023/06/15 12:49:25;;;;;;;3.87;2.63;;;;;;;;;;5043646;28;20262;-59
2023/06/15 12:51:51;;;;;;;4.47;2.70;;;;;;;;;;5040734;28;20412;-57
2023/06/15 12:54:16;;;;;;;8.98;3.15;;;;;;;;;;5032430;28;20017;-60
2023/06/15 12:56:41;;;;;;;3.97;2.42;;;;;;;;;;5030659;28;20550;-56
2023/06/15 12:59:07;;;;;;;8.77;3.53;;;;;;;;;;5026594;28;20152;-54
2023/06/15 13:01:36;;;;;;;7.37;2.77;;;;;;;;;;5030343;28;20036;-60
2023/06/15 13:04:01;;;;;;;13.82;3.00;;;;;;;;;;5038060;28;20045;-59
2023/06/15 13:06:26;;;;;;;4.07;2.72;;;;;;;;;;5030856;28;20056;-58
2023/06/15 13:08:52;;;;;;;4.18;2.92;;;;;;;;;;5027188;28;20048;-59
2023/06/15 13:11:17;;;;;;;26.83;4.70;;;;;;;;;;5035750;28;20033;-59
2023/06/15 13:13:42;;;;;;;10.02;3.60;;;;;;;;;;5043615;28;20242;-56
2023/06/15 13:16:08;;;;;;;5.20;2.60;;;;;;;;;;5032840;28;20028;-58
2023/06/15 13:18:33;;;;;;;7.50;3.07;;;;;;;;;;5036241;28;20280;-60
2023/06/15 13:20:58;;;;;;;6.13;2.77;;;;;;;;;;5031193;28;20616;-57
2023/06/15 13:23:24;;;;;;;11.05;3.25;;;;;;;;;;5042061;28;20266;-59
2023/06/15 13:25:49;;;;;;;5.63;2.90;;;;;;;;;;5045866;28;20025;-60
2023/06/15 13:28:15;;;;;;;5.10;2.85;;;;;;;;;;5041940;28;20147;-59
2023/06/15 13:30:40;;;;;;;6.28;3.15;;;;;;;;;;5041291;28;20119;-61
2023/06/15 13:33:05;;;;;;;10.82;3.33;;;;;;;;;;5034385;28;20017;-59
2023/06/15 13:35:31;;;;;;;5.10;2.37;;;;;;;;;;5041067;28;20116;-59
2023/06/15 13:37:58;;;;;;;7.63;3.37;;;;;;;;;;5037532;28;20076;-61
2023/06/15 13:40:23;;;;;;;6.18;3.40;;;;;;;;;;5041330;28;20263;-59
2023/06/15 13:42:49;;;;;;;5.85;2.97;;;;;;;;;;5044069;28;20108;-57
2023/06/15 13:45:16;;;;;;;5.93;3.10;;;;;;;;;;5045864;28;20025;-58
2023/06/15 13:47:42;;;;;;;7.07;2.97;;;;;;;;;;5036163;28;20025;-60
2023/06/15 13:50:09;;;;;;;7.75;2.55;;;;;;;;;;5041627;28;20510;-61
2023/06/15 13:52:35;;;;;;;8.60;3.25;;;;;;;;;;5031502;28;20026;-56
2023/06/15 13:55:01;;;;;;;5.15;2.75;;;;;;;;;;5043228;28;20106;-60
2023/06/15 13:57:27;;;;;;;5.80;2.65;;;;;;;;;;5040184;28;20031;-57
2023/06/15 13:59:52;;;;;;;8.20;3.45;;;;;;;;;;5041771;28;20017;-57
2023/06/15 14:02:18;;;;;;;17.73;5.30;;;;;;;;;;5039882;28;20515;-59
2023/06/15 14:04:43;;;;;;;7.55;3.35;;;;;;;;;;5039004;28;20082;-60
2023/06/15 14:07:08;;;;;;;10.73;3.80;;;;;;;;;;5041832;28;20029;-58
2023/06/15 14:09:34;;;;;;;19.10;4.70;;;;;;;;;;5045499;28;20270;-59
2023/06/15 14:11:59;;;;;;;5.50;2.90;;;;;;;;;;5050860;28;20286;-60
2023/06/15 14:14:26;;;;;;;5.88;2.95;;;;;;;;;;5039433;28;20273;-56
2023/06/15 14:16:52;;;;;;;9.15;3.42;;;;;;;;;;5047514;28;20036;-62
2023/06/15 14:19:18;;;;;;;6.80;2.80;;;;;;;;;;5043187;28;20482;-58
2023/06/15 14:21:43;;;;;;;6.75;3.05;;;;;;;;;;5043932;28;20071;-58
2023/06/15 14:24:08;;;;;;;7.37;3.80;;;;;;;;;;5032673;28;20033;-60
2023/06/15 14:26:33;;;;;;;4.67;2.83;;;;;;;;;;5027975;28;21083;-59
2023/06/15 14:28:59;;;;;;;6.70;3.23;;;;;;;;;;5037092;28;20064;-57
2023/06/15 14:31:24;;;;;;;9.83;3.57;;;;;;;;;;5034918;28;20025;-58
2023/06/15 14:33:49;;;;;;;6.80;3.30;;;;;;;;;;5042789;28;20266;-56
2023/06/15 14:36:14;;;;;;;8.33;3.53;;;;;;;;;;5040033;28;20021;-56
2023/06/15 14:38:40;;;;;;;7.70;2.87;;;;;;;;;;5041860;28;20494;-57
2023/06/15 14:41:05;;;;;;;8.77;2.90;;;;;;;;;;5038000;28;20036;-59
2023/06/15 14:43:30;;;;;;;3.40;2.40;;;;;;;;;;5043877;28;20056;-60